This is the latest recevied weather packets stored in our database for station/object JA1RBY-13. If no packets are shown the sender has not sent any weather packets the latest 10 day(s).
| Time | Temp. | Humidity | Pressure | Rain* | Wind** | Luminosity | Snow |
|---|---|---|---|---|---|---|---|
| 1788718797 | 20.56° C | 89% | 1004.3 hPa | 0.51 mm | - | - | - |
| 1788707996 | 20° C | 88% | 1008.6 hPa | 0 mm | - | - | - |
| 1788704397 | 20° C | 88% | 1009.6 hPa | 7.11 mm | - | - | - |
| 1788689997 | 20° C | 84% | 1012.5 hPa | 0.51 mm | - | - | - |
| 1788686396 | 20° C | 83% | 1012.9 hPa | 1.02 mm | - | - | - |
| 1788682796 | 20° C | 82% | 1012.8 hPa | 0.76 mm | - | - | - |
| 1788679196 | 20° C | 81% | 1012.9 hPa | 0.25 mm | - | - | - |
| 1788675596 | 19.44° C | 81% | 1012.8 hPa | 1.02 mm | - | - | - |
| 1788671996 | 18.89° C | 81% | 1013.4 hPa | 0.51 mm | - | - | - |
| 1788670197 | 18.89° C | 81% | 1013.3 hPa | 0.51 mm | - | - | - |
| 1788668396 | 18.89° C | 81% | 1013.7 hPa | 0.76 mm | - | - | - |
| 1788666597 | 18.89° C | 81% | 1014 hPa | 1.02 mm | - | - | - |
| 1788664796 | 18.89° C | 81% | 1014.1 hPa | 1.02 mm | - | - | - |
| 1788662997 | 18.89° C | 81% | 1014.7 hPa | 0.51 mm | - | - | - |
| 1788661197 | 18.89° C | 81% | 1015.2 hPa | 0.25 mm | - | - | - |
| 1788659397 | 18.89° C | 80% | 1015.3 hPa | 0.51 mm | - | - | - |
| 1788650396 | 18.89° C | 78% | 1015.9 hPa | 0.51 mm | - | - | - |
| 1788648596 | 18.89° C | 77% | 1015.8 hPa | 0.76 mm | - | - | - |
| 1788646796 | 18.89° C | 76% | 1015.7 hPa | 1.52 mm | - | - | - |
| 1788643196 | 19.44° C | 74% | 1015.6 hPa | 0.51 mm | - | - | - |
| 1788639596 | 20.56° C | 71% | 1015.2 hPa | 0 mm | - | - | - |
| 1788637798 | 21.11° C | 69% | 1014.8 hPa | 0 mm | - | - | - |
| 1788635997 | 21.11° C | 68% | 1014.8 hPa | 0 mm | - | - | - |
| 1788634197 | 21.11° C | 69% | 1014.9 hPa | 0 mm | - | - | - |
| 1788632396 | 21.11° C | 69% | 1014.9 hPa | 0 mm | - | - | - |
* Rain latest hour (hover to see other rain measurements)
** Current wind speed in m/s (hover to see current wind gust speed)